createdAt,value
2023-04-19T00:01:11.297Z,6.53
2023-04-19T00:03:37.987Z,6.87
2023-04-19T00:06:04.814Z,6.90
2023-04-19T00:08:31.555Z,6.88
2023-04-19T00:10:58.069Z,7.45
2023-04-19T00:13:24.609Z,7.57
2023-04-19T00:15:51.103Z,7.53
2023-04-19T00:18:17.631Z,7.65
2023-04-19T00:20:44.525Z,6.95
2023-04-19T00:23:11.025Z,7.20
2023-04-19T00:25:37.602Z,7.45
2023-04-19T00:28:04.868Z,7.90
2023-04-19T00:30:31.411Z,7.25
2023-04-19T00:32:58.177Z,7.22
2023-04-19T00:35:24.849Z,7.50
2023-04-19T00:37:52.253Z,7.63
2023-04-19T00:40:18.792Z,7.00
2023-04-19T00:42:45.298Z,7.88
2023-04-19T00:45:11.914Z,7.38
2023-04-19T00:47:38.958Z,7.72
2023-04-19T00:50:06.564Z,7.95
2023-04-19T00:52:34.257Z,7.90
2023-04-19T00:55:01.942Z,7.60
2023-04-19T00:57:29.047Z,7.53
2023-04-19T00:59:56.282Z,7.13
2023-04-19T01:02:23.206Z,7.03
2023-04-19T01:04:50.085Z,7.90
2023-04-19T01:07:18.009Z,7.68
2023-04-19T01:09:45.275Z,8.20
2023-04-19T01:12:11.878Z,7.90
2023-04-19T01:14:38.452Z,8.32
2023-04-19T01:17:05.660Z,8.17
2023-04-19T01:19:32.218Z,8.07
2023-04-19T01:21:58.703Z,8.50
2023-04-19T01:24:25.826Z,7.90
2023-04-19T01:26:52.566Z,8.07
2023-04-19T01:29:22.076Z,8.30
2023-04-19T01:31:53.423Z,8.27
2023-04-19T01:34:20.382Z,7.72
2023-04-19T01:36:46.946Z,7.82
2023-04-19T01:39:13.515Z,7.60
2023-04-19T01:41:40.199Z,7.53
2023-04-19T01:44:06.823Z,8.00
2023-04-19T01:46:33.455Z,7.28
2023-04-19T01:48:59.979Z,7.35
2023-04-19T01:51:26.552Z,7.47
2023-04-19T01:53:54.630Z,7.47
2023-04-19T01:56:22.850Z,6.82
2023-04-19T01:58:49.417Z,7.45
2023-04-19T02:01:15.992Z,6.85
2023-04-19T02:03:42.789Z,6.78
2023-04-19T02:06:13.456Z,7.50
2023-04-19T02:08:40.686Z,7.25
2023-04-19T02:11:09.270Z,7.03
2023-04-19T02:13:36.142Z,6.93
2023-04-19T02:16:06.921Z,6.90
2023-04-19T02:18:38.303Z,6.63
2023-04-19T02:21:09.559Z,6.40
2023-04-19T02:23:36.385Z,6.90
2023-04-19T02:26:03.276Z,6.78
2023-04-19T02:28:30.750Z,6.70
2023-04-19T02:30:58.050Z,6.17
2023-04-19T02:33:27.166Z,5.97
2023-04-19T02:35:53.709Z,7.45
2023-04-19T02:38:20.436Z,6.60
2023-04-19T02:40:46.970Z,7.07
2023-04-19T02:43:13.514Z,6.93
2023-04-19T02:45:40.998Z,6.40
2023-04-19T02:48:07.630Z,7.22
2023-04-19T02:50:37.256Z,6.75
2023-04-19T02:53:03.817Z,7.03
2023-04-19T02:55:31.470Z,6.30
2023-04-19T02:58:05.589Z,6.60
2023-04-19T03:00:36.605Z,6.72
2023-04-19T03:03:09.811Z,7.15
2023-04-19T03:05:36.436Z,6.63
2023-04-19T03:08:03.049Z,6.07
2023-04-19T03:10:29.606Z,6.50
2023-04-19T03:12:56.169Z,6.88
2023-04-19T03:15:23.060Z,6.13
2023-04-19T03:17:49.768Z,6.35
2023-04-19T03:20:17.177Z,6.93
2023-04-19T03:22:44.332Z,6.53
2023-04-19T03:25:12.640Z,6.68
2023-04-19T03:27:41.426Z,6.50
2023-04-19T03:30:12.779Z,6.90
2023-04-19T03:32:40.213Z,6.57
2023-04-19T03:35:08.407Z,6.60
2023-04-19T03:37:35.559Z,6.97
2023-04-19T03:40:02.701Z,6.88
2023-04-19T03:42:33.074Z,6.85
2023-04-19T03:45:19.875Z,6.43
2023-04-19T03:47:47.844Z,5.93
2023-04-19T03:50:15.012Z,6.07
2023-04-19T03:52:45.388Z,5.60
2023-04-19T03:55:14.025Z,6.30
2023-04-19T03:57:41.110Z,5.33
2023-04-19T04:00:18.117Z,5.95
2023-04-19T04:02:52.032Z,5.80
2023-04-19T04:05:19.219Z,5.30
2023-04-19T04:07:45.957Z,5.28
2023-04-19T04:10:12.595Z,4.90
2023-04-19T04:12:42.436Z,5.05
2023-04-19T04:15:12.373Z,4.40
2023-04-19T04:17:45.326Z,5.13
2023-04-19T04:20:13.527Z,4.78
2023-04-19T04:22:42.904Z,4.93
2023-04-19T04:25:11.198Z,5.05
2023-04-19T04:27:39.355Z,4.40
2023-04-19T04:30:11.155Z,4.75
2023-04-19T04:32:38.705Z,4.45
2023-04-19T04:35:06.429Z,4.00
2023-04-19T04:37:42.011Z,4.35
2023-04-19T04:40:09.156Z,4.70
2023-04-19T04:42:37.962Z,4.20
2023-04-19T04:45:06.144Z,4.97
2023-04-19T04:47:35.372Z,4.97
2023-04-19T04:50:05.977Z,4.50
2023-04-19T04:52:32.564Z,3.95
2023-04-19T04:55:11.025Z,3.92
2023-04-19T04:57:42.270Z,4.70
2023-04-19T05:00:14.396Z,3.70
2023-04-19T05:03:03.483Z,3.95
2023-04-19T05:05:33.594Z,4.20
2023-04-19T05:08:01.104Z,4.03
2023-04-19T05:10:27.845Z,3.42
2023-04-19T05:12:54.418Z,4.00
2023-04-19T05:15:21.146Z,3.60
2023-04-19T05:17:51.513Z,3.28
2023-04-19T05:20:19.905Z,3.20
2023-04-19T05:22:48.843Z,2.63
2023-04-19T05:25:15.474Z,3.03
2023-04-19T05:27:42.311Z,3.17
2023-04-19T05:30:09.858Z,3.08
2023-04-19T05:32:41.111Z,3.30
2023-04-19T05:35:11.128Z,3.13
2023-04-19T05:37:38.720Z,3.03
2023-04-19T05:40:06.452Z,2.90
2023-04-19T05:42:33.148Z,2.70
2023-04-19T05:44:59.829Z,2.67
2023-04-19T05:47:27.919Z,2.55
2023-04-19T05:50:11.194Z,2.57
2023-04-19T05:52:44.212Z,2.80
2023-04-19T05:55:10.907Z,2.38
2023-04-19T05:57:42.195Z,2.20
2023-04-19T06:00:09.736Z,2.45
2023-04-19T06:02:50.123Z,2.33
2023-04-19T06:05:17.062Z,2.40
2023-04-19T06:07:54.440Z,2.08
2023-04-19T06:10:36.763Z,2.17
2023-04-19T06:13:15.689Z,2.50
2023-04-19T06:15:42.642Z,2.03
2023-04-19T06:18:11.041Z,2.80
2023-04-19T06:20:46.701Z,2.28
2023-04-19T06:23:15.288Z,2.60
2023-04-19T06:25:42.067Z,1.98
2023-04-19T06:28:08.654Z,2.13
2023-04-19T06:30:35.565Z,1.85
2023-04-19T06:33:02.218Z,2.28
2023-04-19T06:35:28.873Z,2.10
2023-04-19T06:37:55.378Z,2.10
2023-04-19T06:40:21.983Z,1.90
2023-04-19T06:42:48.458Z,2.33
2023-04-19T06:45:16.092Z,2.05
2023-04-19T06:47:42.804Z,1.60
2023-04-19T06:50:10.798Z,1.90
2023-04-19T06:52:37.479Z,2.17
2023-04-19T06:55:04.461Z,1.73
2023-04-19T06:57:30.976Z,1.73
2023-04-19T06:59:58.539Z,2.15
2023-04-19T07:02:25.236Z,1.85
2023-04-19T07:04:51.859Z,1.90
2023-04-19T07:07:18.480Z,1.85
2023-04-19T07:09:45.078Z,2.05
2023-04-19T07:12:11.669Z,2.03
2023-04-19T07:14:38.346Z,1.55
2023-04-19T07:17:06.159Z,1.37
2023-04-19T07:19:33.078Z,1.80
2023-04-19T07:21:59.833Z,1.15
2023-04-19T07:24:27.936Z,1.30
2023-04-19T07:26:54.506Z,1.05
2023-04-19T07:29:21.169Z,1.20
2023-04-19T07:31:47.921Z,1.13
2023-04-19T07:34:14.802Z,1.20
2023-04-19T07:36:41.458Z,1.35
2023-04-19T07:39:08.208Z,0.95
2023-04-19T07:41:36.124Z,1.23
2023-04-19T07:44:03.067Z,1.08
2023-04-19T07:46:29.642Z,0.90
2023-04-19T07:48:56.227Z,1.17
2023-04-19T07:51:24.609Z,0.98
2023-04-19T07:53:51.187Z,1.30
2023-04-19T07:56:19.647Z,1.10
2023-04-19T07:58:50.813Z,1.00
2023-04-19T08:01:23.509Z,0.80
2023-04-19T08:03:50.317Z,1.10
2023-04-19T08:06:18.029Z,0.80
2023-04-19T08:08:44.568Z,1.13
2023-04-19T08:11:11.127Z,0.60
2023-04-19T08:13:40.245Z,1.00
2023-04-19T08:18:36.675Z,1.13
2023-04-19T08:21:03.427Z,1.27
2023-04-19T08:23:41.291Z,1.13
2023-04-19T08:26:14.142Z,1.10
2023-04-19T08:28:40.822Z,0.80
2023-04-19T08:31:07.850Z,1.10
2023-04-19T08:33:34.492Z,0.90
2023-04-19T08:36:00.999Z,1.00
2023-04-19T08:38:27.511Z,0.90
2023-04-19T08:40:55.385Z,0.85
2023-04-19T08:43:24.544Z,1.37
2023-04-19T08:45:51.567Z,1.05
2023-04-19T08:48:18.553Z,1.10
2023-04-19T08:51:03.665Z,1.20
2023-04-19T08:53:34.731Z,1.02
2023-04-19T09:01:04.878Z,0.88
2023-04-19T09:03:40.920Z,1.08
2023-04-19T09:06:14.358Z,1.10
2023-04-19T09:08:41.866Z,1.43
2023-04-19T09:11:09.041Z,0.93
2023-04-19T09:13:38.341Z,1.05
2023-04-19T09:16:05.846Z,1.00
2023-04-19T09:18:35.836Z,0.95
2023-04-19T09:21:04.679Z,0.93
2023-04-19T09:23:31.205Z,1.08
2023-04-19T09:28:33.917Z,0.90
2023-04-19T09:31:33.005Z,0.70
2023-04-19T09:34:19.472Z,0.87
2023-04-19T09:36:46.967Z,0.90
2023-04-19T09:39:14.605Z,0.98
2023-04-19T09:41:52.418Z,1.02
2023-04-19T09:46:53.360Z,0.80
2023-04-19T09:49:41.217Z,0.68
2023-04-19T09:52:13.850Z,0.90
2023-04-19T09:54:41.833Z,0.93
2023-04-19T09:57:08.838Z,0.85
2023-04-19T09:59:35.369Z,0.83
2023-04-19T10:02:04.216Z,1.30
2023-04-19T10:04:47.766Z,0.80
2023-04-19T10:09:53.629Z,0.80
2023-04-19T10:12:48.157Z,1.30
2023-04-19T10:15:11.873Z,1.45
2023-04-19T10:17:38.374Z,1.52
2023-04-19T10:20:10.566Z,1.10
2023-04-19T10:22:38.621Z,1.17
2023-04-19T10:25:13.237Z,1.20
2023-04-19T10:27:41.684Z,1.10
2023-04-19T10:30:29.163Z,1.05
2023-04-19T10:32:57.394Z,1.02
2023-04-19T10:35:39.227Z,1.10
2023-04-19T10:38:13.864Z,1.20
2023-04-19T10:41:17.028Z,1.38
2023-04-19T10:43:57.716Z,1.30
2023-04-19T10:46:29.081Z,1.42
2023-04-19T10:49:03.654Z,1.55
2023-04-19T10:51:36.351Z,1.30
2023-04-19T10:54:07.365Z,1.45
2023-04-19T10:56:33.990Z,1.48
2023-04-19T10:59:00.727Z,1.60
2023-04-19T11:01:56.833Z,1.20
2023-04-19T11:04:32.502Z,1.10
2023-04-19T11:07:01.973Z,1.40
2023-04-19T11:09:38.681Z,1.33
2023-04-19T11:12:11.761Z,1.38
2023-04-19T11:14:46.089Z,1.30
2023-04-19T11:17:27.840Z,1.23
2023-04-19T11:19:56.690Z,1.40
2023-04-19T11:22:36.622Z,1.52
2023-04-19T11:25:10.557Z,1.63
2023-04-19T11:27:38.078Z,1.73
2023-04-19T11:30:05.688Z,1.70
2023-04-19T11:32:32.727Z,1.15
2023-04-19T11:35:05.138Z,2.20
2023-04-19T11:37:36.506Z,1.35
2023-04-19T11:40:05.404Z,1.42
2023-04-19T11:42:33.169Z,1.30
2023-04-19T11:44:59.947Z,2.25
2023-04-19T11:47:27.338Z,1.50
2023-04-19T11:49:57.288Z,1.60
2023-04-19T11:52:26.494Z,1.85
2023-04-19T11:54:53.369Z,1.30
2023-04-19T11:57:32.240Z,2.10
2023-04-19T12:00:07.674Z,1.30
2023-04-19T12:02:42.434Z,1.73
2023-04-19T12:05:11.520Z,1.90
2023-04-19T12:07:56.980Z,2.17
2023-04-19T12:10:23.497Z,1.77
2023-04-19T12:12:50.325Z,1.67
2023-04-19T12:15:17.035Z,1.52
2023-04-19T12:18:00.011Z,1.75
2023-04-19T12:20:33.709Z,2.10
2023-04-19T12:23:00.486Z,2.05
2023-04-19T12:25:34.491Z,1.25
2023-04-19T12:28:04.279Z,1.40
2023-04-19T12:30:30.927Z,1.20
2023-04-19T12:32:58.915Z,1.33
2023-04-19T12:35:29.421Z,1.20
2023-04-19T12:37:57.979Z,1.40
2023-04-19T12:40:25.288Z,1.15
2023-04-19T12:42:52.505Z,1.20
2023-04-19T12:45:20.471Z,1.77
2023-04-19T12:47:47.972Z,1.15
2023-04-19T12:50:16.052Z,1.20
2023-04-19T12:52:46.028Z,1.70
2023-04-19T12:55:12.665Z,1.38
2023-04-19T12:57:39.411Z,1.23
2023-04-19T13:00:07.403Z,1.50
2023-04-19T13:02:35.195Z,1.13
2023-04-19T13:05:05.060Z,1.25
2023-04-19T13:07:31.703Z,1.38
2023-04-19T13:09:59.104Z,1.40
2023-04-19T13:12:25.750Z,1.50
2023-04-19T13:14:52.588Z,1.77
2023-04-19T13:17:20.346Z,1.60
2023-04-19T13:19:47.535Z,1.50
2023-04-19T13:22:14.588Z,1.73
2023-04-19T13:24:41.211Z,1.45
2023-04-19T13:27:09.099Z,1.60
2023-04-19T13:29:36.062Z,1.73
2023-04-19T13:32:02.949Z,1.58
2023-04-19T13:34:29.497Z,1.90
2023-04-19T13:36:57.570Z,2.33
2023-04-19T13:39:24.238Z,1.40
2023-04-19T13:41:51.267Z,1.90
2023-04-19T13:44:18.199Z,1.40
2023-04-19T13:46:45.078Z,1.70
2023-04-19T13:49:11.675Z,1.40
2023-04-19T13:51:48.881Z,1.52
2023-04-19T13:54:18.068Z,1.90
2023-04-19T13:56:45.522Z,1.38
2023-04-19T13:59:12.513Z,1.53
2023-04-19T14:01:39.378Z,1.80
2023-04-19T14:04:06.026Z,1.90
2023-04-19T14:06:32.811Z,1.77
2023-04-19T14:08:59.322Z,1.40
2023-04-19T14:11:25.938Z,1.47
2023-04-19T14:13:53.244Z,2.00
2023-04-19T14:16:20.694Z,1.60
2023-04-19T14:18:47.423Z,1.75
2023-04-19T14:21:14.070Z,1.60
2023-04-19T14:23:40.528Z,2.03
2023-04-19T14:26:07.658Z,1.95
2023-04-19T14:28:34.212Z,1.67
2023-04-19T14:31:00.845Z,1.98
2023-04-19T14:33:27.509Z,2.55
2023-04-19T14:35:54.386Z,1.97
2023-04-19T14:38:20.911Z,2.42
2023-04-19T14:40:47.401Z,2.25
2023-04-19T14:43:16.906Z,2.40
2023-04-19T14:45:43.444Z,2.40
2023-04-19T14:48:10.060Z,2.40
2023-04-19T14:50:36.635Z,2.08
2023-04-19T14:53:03.231Z,2.53
2023-04-19T14:55:29.779Z,2.53
2023-04-19T14:57:56.382Z,2.25
2023-04-19T15:00:22.929Z,2.67
2023-04-19T15:02:49.513Z,2.53
2023-04-19T15:05:16.425Z,2.15
2023-04-19T15:07:43.103Z,2.35
2023-04-19T15:10:10.197Z,2.63
2023-04-19T15:12:36.736Z,3.03
2023-04-19T15:15:03.537Z,2.75
2023-04-19T15:17:30.120Z,2.38
2023-04-19T15:19:56.669Z,2.30
2023-04-19T15:22:23.214Z,2.30
2023-04-19T15:24:49.836Z,1.80
2023-04-19T15:27:16.359Z,2.20
2023-04-19T15:29:42.866Z,1.90
2023-04-19T15:32:09.358Z,1.92
2023-04-19T15:34:36.114Z,2.38
2023-04-19T15:37:06.138Z,2.27
2023-04-19T15:39:32.712Z,2.30
2023-04-19T15:41:59.224Z,1.90
2023-04-19T15:44:25.843Z,1.80
2023-04-19T15:46:52.392Z,1.92
2023-04-19T15:49:19.167Z,1.90
2023-04-19T15:51:46.079Z,1.60
2023-04-19T15:54:14.308Z,1.60
2023-04-19T15:56:40.928Z,1.48
2023-04-19T15:59:07.542Z,1.45
2023-04-19T16:01:34.099Z,1.40
2023-04-19T16:04:00.936Z,1.50
2023-04-19T16:06:27.612Z,1.33
2023-04-19T16:08:54.130Z,1.58
2023-04-19T16:11:20.675Z,1.42
2023-04-19T16:13:48.403Z,1.40
2023-04-19T16:16:14.997Z,1.60
2023-04-19T16:18:41.548Z,1.30
2023-04-19T16:21:08.354Z,1.17
2023-04-19T16:23:34.886Z,1.30
2023-04-19T16:26:01.399Z,1.13
2023-04-19T16:28:28.026Z,1.42
2023-04-19T16:30:54.741Z,1.10
2023-04-19T16:33:21.504Z,1.08
2023-04-19T16:35:48.121Z,1.23
2023-04-19T16:38:14.657Z,1.17
2023-04-19T16:40:41.193Z,1.20
2023-04-19T16:43:07.752Z,1.15
2023-04-19T16:45:34.331Z,1.13
2023-04-19T16:48:01.012Z,1.20
2023-04-19T16:50:27.581Z,1.10
2023-04-19T16:52:54.157Z,0.90
2023-04-19T16:55:21.595Z,0.95
2023-04-19T16:57:48.201Z,1.30
2023-04-19T17:00:15.040Z,0.98
2023-04-19T17:02:41.772Z,1.07
2023-04-19T17:05:09.070Z,1.02
2023-04-19T17:07:35.650Z,1.10
2023-04-19T17:10:02.240Z,0.70
2023-04-19T17:12:28.762Z,1.17
2023-04-19T17:14:55.237Z,0.90
2023-04-19T17:17:21.825Z,1.30
2023-04-19T17:19:48.323Z,1.10
2023-04-19T17:22:15.353Z,1.65
2023-04-19T17:24:42.257Z,1.20
2023-04-19T17:27:08.806Z,1.17
2023-04-19T17:29:35.504Z,0.90
2023-04-19T17:32:02.172Z,1.15
2023-04-19T17:34:28.770Z,1.00
2023-04-19T17:36:55.275Z,0.90
2023-04-19T17:39:21.826Z,1.30
2023-04-19T17:41:48.396Z,1.30
2023-04-19T17:44:14.891Z,1.40
2023-04-19T17:46:41.517Z,1.38
2023-04-19T17:49:08.986Z,1.40
2023-04-19T17:51:35.557Z,1.30
2023-04-19T17:54:02.049Z,1.05
2023-04-19T17:56:28.602Z,1.58
2023-04-19T17:58:55.208Z,1.13
2023-04-19T18:01:21.753Z,1.30
2023-04-19T18:03:48.748Z,1.30
2023-04-19T18:06:16.384Z,1.23
2023-04-19T18:08:46.281Z,1.27
2023-04-19T18:11:13.041Z,1.40
2023-04-19T18:13:39.609Z,1.80
2023-04-19T18:16:06.299Z,1.40
2023-04-19T18:18:32.900Z,1.65
2023-04-19T18:20:59.951Z,1.73
2023-04-19T18:23:26.788Z,1.70
2023-04-19T18:25:54.342Z,1.40
2023-04-19T18:28:21.209Z,1.60
2023-04-19T18:30:47.913Z,1.35
2023-04-19T18:33:14.393Z,1.33
2023-04-19T18:35:41.125Z,1.67
2023-04-19T18:38:08.707Z,1.50
2023-04-19T18:40:35.224Z,1.53
2023-04-19T18:43:01.738Z,1.85
2023-04-19T18:45:29.278Z,1.50
2023-04-19T18:47:55.975Z,1.50
2023-04-19T18:50:22.523Z,1.60
2023-04-19T18:52:49.020Z,1.23
2023-04-19T18:55:16.162Z,1.52
2023-04-19T18:57:42.838Z,1.75
2023-04-19T19:00:11.346Z,1.70
2023-04-19T19:02:40.698Z,2.05
2023-04-19T19:05:08.937Z,2.10
2023-04-19T19:07:37.451Z,2.30
2023-04-19T19:10:16.930Z,2.33
2023-04-19T19:12:45.533Z,2.20
2023-04-19T19:15:12.185Z,1.92
2023-04-19T19:17:38.902Z,2.00
2023-04-19T19:20:06.828Z,2.00
2023-04-19T19:22:34.112Z,1.85
2023-04-19T19:25:00.906Z,2.08
2023-04-19T19:27:27.569Z,2.35
2023-04-19T19:29:54.122Z,1.77
2023-04-19T19:32:20.955Z,2.40
2023-04-19T19:37:17.579Z,2.10
2023-04-19T19:39:44.898Z,2.38
2023-04-19T19:42:16.327Z,2.13
2023-04-19T19:44:43.238Z,2.33
2023-04-19T19:47:11.083Z,2.42
2023-04-19T19:52:07.471Z,2.38
2023-04-19T19:54:34.045Z,2.27
2023-04-19T19:57:48.301Z,1.70
2023-04-19T19:59:54.423Z,2.00
2023-04-19T20:02:22.335Z,2.20
2023-04-19T20:04:49.299Z,1.83
2023-04-19T20:09:45.816Z,1.80
2023-04-19T20:12:13.551Z,1.90
2023-04-19T20:14:40.583Z,1.90
2023-04-19T20:17:07.459Z,1.70
2023-04-19T20:19:34.090Z,1.60
2023-04-19T20:22:00.970Z,1.70
2023-04-19T20:24:27.529Z,1.60
2023-04-19T20:26:54.276Z,2.03
2023-04-19T20:29:20.887Z,2.28
2023-04-19T20:31:47.454Z,1.40
2023-04-19T20:34:13.990Z,1.52
2023-04-19T20:36:40.684Z,1.67
2023-04-19T20:39:09.782Z,1.80
2023-04-19T20:41:36.519Z,1.45
2023-04-19T20:44:04.560Z,1.70
2023-04-19T20:46:31.953Z,1.80
2023-04-19T20:48:58.520Z,1.30
2023-04-19T20:51:25.069Z,1.40
2023-04-19T20:53:51.601Z,1.30
2023-04-19T20:56:18.395Z,1.97
2023-04-19T20:58:45.320Z,1.52
2023-04-19T21:01:14.255Z,1.50
2023-04-19T21:03:41.007Z,1.40
2023-04-19T21:06:07.573Z,1.45
2023-04-19T21:08:34.145Z,1.37
2023-04-19T21:11:00.651Z,1.20
2023-04-19T21:13:27.204Z,1.30
2023-04-19T21:15:53.710Z,1.02
2023-04-19T21:18:20.448Z,1.63
2023-04-19T21:20:46.956Z,1.00
2023-04-19T21:23:14.130Z,1.38
2023-04-19T21:25:40.630Z,1.40
2023-04-19T21:28:07.103Z,1.55
2023-04-19T21:30:33.604Z,1.38
2023-04-19T21:33:00.363Z,1.27
2023-04-19T21:35:26.926Z,1.38
2023-04-19T21:37:53.452Z,1.00
2023-04-19T21:40:20.038Z,1.27
2023-04-19T21:42:46.567Z,1.00
2023-04-19T21:45:13.075Z,0.93
2023-04-19T21:47:39.658Z,1.17
2023-04-19T21:50:06.798Z,1.30
2023-04-19T21:52:33.321Z,1.48
2023-04-19T21:54:59.816Z,1.00
2023-04-19T21:57:27.142Z,1.17
2023-04-19T21:59:53.868Z,1.20
2023-04-19T22:02:20.582Z,1.38
2023-04-19T22:04:47.154Z,1.05
2023-04-19T22:07:13.656Z,1.42
2023-04-19T22:09:40.182Z,1.00
2023-04-19T22:12:06.918Z,1.00
2023-04-19T22:14:33.676Z,1.05
2023-04-19T22:17:02.350Z,1.00
2023-04-19T22:19:29.272Z,1.10
2023-04-19T22:21:55.845Z,1.00
2023-04-19T22:24:22.683Z,1.30
2023-04-19T22:26:50.135Z,0.98
2023-04-19T22:29:17.398Z,0.80
2023-04-19T22:31:44.133Z,0.77
2023-04-19T22:34:10.651Z,1.40
2023-04-19T22:36:37.161Z,1.13
2023-04-19T22:39:04.649Z,1.13
2023-04-19T22:41:33.007Z,0.82
2023-04-19T22:44:00.177Z,0.80
2023-04-19T22:46:27.280Z,0.80
2023-04-19T22:48:53.816Z,0.70
2023-04-19T22:51:20.361Z,0.90
2023-04-19T22:53:46.875Z,0.90
2023-04-19T22:56:13.504Z,1.00
2023-04-19T22:58:39.983Z,1.07
2023-04-19T23:01:06.593Z,1.23
2023-04-19T23:03:33.210Z,1.20
2023-04-19T23:06:01.497Z,1.17
2023-04-19T23:08:29.872Z,1.00
2023-04-19T23:10:56.401Z,1.23
2023-04-19T23:13:22.909Z,1.20
2023-04-19T23:15:49.507Z,1.33
2023-04-19T23:18:17.541Z,1.08
2023-04-19T23:20:44.068Z,1.20
2023-04-19T23:23:10.639Z,1.10
2023-04-19T23:25:37.195Z,1.10
2023-04-19T23:28:03.765Z,1.17
2023-04-19T23:30:31.976Z,0.93
2023-04-19T23:32:58.613Z,1.27
2023-04-19T23:35:25.398Z,1.13
2023-04-19T23:37:51.920Z,1.67
2023-04-19T23:40:18.598Z,1.00
2023-04-19T23:42:45.268Z,1.05
2023-04-19T23:45:11.772Z,1.13
2023-04-19T23:47:38.340Z,1.27
2023-04-19T23:50:05.231Z,1.10
2023-04-19T23:52:31.916Z,1.10
2023-04-19T23:54:58.434Z,1.25
2023-04-19T23:57:25.449Z,1.30
2023-04-19T23:59:51.952Z,1.40
